Sedley, Virginia
Current Conditions -  °F | °C
As of 4:15 PM on Sunday 23 Nov 2014 (Local Time) from KFKN Reporting Station
Overcast Overcast  
Wind Chill: 57°   Ceiling: 5000
Heat Index: 57°   Visibility: 10mi
Dew Point: 52°   Wind: 5mph
Humidity: 82%   Direction: 100°E
Pressure: 30.08"   Gusts: NA
Location:  36.78°N, 76.98°W
Report Text: KFKN 232115Z AUTO 10004KT 10SM SCT024 SCT033 OVC050 14/11 A3008 RMK AO1
Loading
Personal Weather Stations






























Interactive Weather Map New forecast layout! Learn more

10-Day Weather Forecast

Advertisements
Track Severe Weather on mobile